Terminal Aerodrome Forecast
Issued by NWS

Home | Current Version | Previous Version | Text Only | Print | Product List | Glossary On
Versions: 1 2 3 4 5 6 7 8 9 10 11 12 13 14 15 16 17 18 19 20
196
FTUS43 KDTX 262325
TAFDET
TAF
KDET 262325Z 2700/2724 20004KT P6SM BKN250
     FM271200 24006KT P6SM BKN100
     FM271700 31008KT P6SM BKN060 PROB30 2717/2720 6SM -RA BKN040=

USA.gov is the U.S. government's official web portal to all federal, state and local government web resources and services.